TimeEDT,TemperatureF,Dew PointF,Humidity,Sea Level PressureIn,VisibilityMPH,Wind Direction,Wind SpeedMPH,Gust SpeedMPH,PrecipitationIn,Events,Conditions,WindDirDegrees,DateUTC
12:53 AM,30.0,19.0,64,30.20,10.0,Calm,Calm,-,N/A,,Clear,0,2014-03-14 04:53:00
1:53 AM,30.0,16.0,56,30.19,10.0,Calm,Calm,-,N/A,,Clear,0,2014-03-14 05:53:00
2:53 AM,28.9,16.0,58,30.20,10.0,Calm,Calm,-,N/A,,Clear,0,2014-03-14 06:53:00
3:53 AM,30.0,17.1,59,30.18,10.0,SSE,3.5,-,N/A,,Clear,150,2014-03-14 07:53:00
4:53 AM,30.9,15.1,52,30.17,10.0,Calm,Calm,-,N/A,,Clear,0,2014-03-14 08:53:00
5:53 AM,30.0,17.1,59,30.17,10.0,SSE,3.5,-,N/A,,Clear,160,2014-03-14 09:53:00
6:53 AM,34.0,15.1,46,30.16,10.0,South,3.5,-,N/A,,Clear,170,2014-03-14 10:53:00
7:53 AM,36.0,16.0,44,30.17,10.0,SSE,4.6,-,N/A,,Clear,160,2014-03-14 11:53:00
8:53 AM,37.9,19.9,48,30.18,10.0,SSE,4.6,-,N/A,,Clear,160,2014-03-14 12:53:00
9:53 AM,45.0,23.0,42,30.17,10.0,South,6.9,-,N/A,,Clear,180,2014-03-14 13:53:00
10:53 AM,51.1,25.0,36,30.17,10.0,SSW,15.0,21.9,N/A,,Clear,200,2014-03-14 14:53:00
11:53 AM,55.9,27.0,33,30.14,10.0,SSW,16.1,27.6,N/A,,Clear,210,2014-03-14 15:53:00
12:53 PM,59.0,26.1,28,30.12,10.0,SW,18.4,26.5,N/A,,Clear,230,2014-03-14 16:53:00
1:53 PM,60.1,25.0,26,30.08,10.0,WSW,18.4,28.8,N/A,,Clear,240,2014-03-14 17:53:00
2:53 PM,61.0,26.1,26,30.02,10.0,SSW,16.1,26.5,N/A,,Clear,210,2014-03-14 18:53:00
3:53 PM,62.1,27.0,26,30.00,10.0,SSW,18.4,26.5,N/A,,Clear,210,2014-03-14 19:53:00
4:53 PM,62.1,27.0,26,29.97,10.0,SSW,13.8,20.7,N/A,,Mostly Cloudy,210,2014-03-14 20:53:00
5:53 PM,61.0,27.0,27,29.96,10.0,SSW,13.8,21.9,N/A,,Mostly Cloudy,200,2014-03-14 21:53:00
6:53 PM,60.1,26.1,27,29.96,10.0,SW,9.2,-,N/A,,Mostly Cloudy,220,2014-03-14 22:53:00
7:53 PM,60.1,27.0,28,29.97,10.0,WSW,12.7,-,N/A,,Overcast,240,2014-03-14 23:53:00
8:53 PM,59.0,28.0,31,29.97,10.0,WSW,11.5,-,N/A,,Overcast,240,2014-03-15 00:53:00
9:53 PM,57.9,28.0,32,29.99,10.0,SW,9.2,-,N/A,,Overcast,220,2014-03-15 01:53:00
10:53 PM,57.9,30.9,36,29.99,10.0,SW,13.8,-,N/A,,Overcast,230,2014-03-15 02:53:00
11:53 PM,57.9,30.9,36,29.99,10.0,SW,13.8,20.7,N/A,,Overcast,230,2014-03-15 03:53:00